createdAt,value
2019-02-28T00:02:26.582Z,5.50
2019-02-28T00:04:57.122Z,4.05
2019-02-28T00:07:27.315Z,5.10
2019-02-28T00:09:58.240Z,5.47
2019-02-28T00:12:28.442Z,4.77
2019-02-28T00:14:59.377Z,4.60
2019-02-28T00:17:30.042Z,4.80
2019-02-28T00:20:00.364Z,4.23
2019-02-28T00:22:30.688Z,5.00
2019-02-28T00:25:01.128Z,4.10
2019-02-28T00:27:32.847Z,4.43
2019-02-28T00:30:05.966Z,4.90
2019-02-28T00:32:35.219Z,4.47
2019-02-28T00:35:05.735Z,4.40
2019-02-28T00:37:35.926Z,4.13
2019-02-28T00:40:07.462Z,4.57
2019-02-28T00:42:37.755Z,4.13
2019-02-28T00:45:08.995Z,4.03
2019-02-28T00:47:39.207Z,4.72
2019-02-28T00:50:09.722Z,4.50
2019-02-28T00:52:39.856Z,4.57
2019-02-28T00:55:10.067Z,4.87
2019-02-28T00:57:40.188Z,4.53
2019-02-28T01:00:11.394Z,4.60
2019-02-28T01:02:41.746Z,4.40
2019-02-28T01:05:11.893Z,4.47
2019-02-28T01:07:42.139Z,5.03
2019-02-28T01:10:12.825Z,4.40
2019-02-28T01:12:44.137Z,4.57
2019-02-28T01:15:15.328Z,4.30
2019-02-28T01:17:45.551Z,4.30
2019-02-28T01:20:16.690Z,4.57
2019-02-28T01:22:47.030Z,4.30
2019-02-28T01:25:17.202Z,4.10
2019-02-28T01:27:47.333Z,4.10
2019-02-28T01:30:17.672Z,4.60
2019-02-28T01:32:50.914Z,4.70
2019-02-28T01:35:19.963Z,4.37
2019-02-28T01:37:52.402Z,5.13
2019-02-28T01:40:22.066Z,5.03
2019-02-28T01:42:54.898Z,3.83
2019-02-28T01:45:26.442Z,5.20
2019-02-28T01:47:56.748Z,4.77
2019-02-28T01:50:29.699Z,3.83
2019-02-28T01:52:59.012Z,4.20
2019-02-28T01:55:30.194Z,3.60
2019-02-28T01:58:00.397Z,4.77
2019-02-28T02:00:30.633Z,4.63
2019-02-28T02:03:00.708Z,4.20
2019-02-28T02:05:30.953Z,4.80
2019-02-28T02:08:01.146Z,4.90
2019-02-28T02:10:31.416Z,4.43
2019-02-28T02:13:03.191Z,4.33
2019-02-28T02:15:33.732Z,3.70
2019-02-28T02:18:06.423Z,4.80
2019-02-28T02:20:36.101Z,5.10
2019-02-28T02:23:06.222Z,4.47
2019-02-28T02:25:37.518Z,4.47
2019-02-28T02:28:08.563Z,4.67
2019-02-28T02:30:39.160Z,4.20
2019-02-28T02:33:13.666Z,4.30
2019-02-28T02:35:42.777Z,4.40
2019-02-28T02:38:13.276Z,4.07
2019-02-28T02:40:45.173Z,3.80
2019-02-28T02:43:15.564Z,4.30
2019-02-28T02:45:45.927Z,4.67
2019-02-28T02:48:16.269Z,4.23
2019-02-28T02:50:46.447Z,4.20
2019-02-28T02:53:16.737Z,4.10
2019-02-28T02:55:46.851Z,4.10
2019-02-28T02:58:16.996Z,4.30
2019-02-28T03:00:51.136Z,4.47
2019-02-28T03:03:19.141Z,3.70
2019-02-28T03:05:49.374Z,4.27
2019-02-28T03:08:19.777Z,4.50
2019-02-28T03:10:51.810Z,4.63
2019-02-28T03:13:21.821Z,4.40
2019-02-28T03:15:52.064Z,4.97
2019-02-28T03:18:22.361Z,4.07
2019-02-28T03:20:52.675Z,4.57
2019-02-28T03:23:22.991Z,4.70
2019-02-28T03:25:53.130Z,3.70
2019-02-28T03:28:23.269Z,3.70
2019-02-28T03:30:53.408Z,5.10
2019-02-28T03:33:27.680Z,4.92
2019-02-28T03:35:55.587Z,5.13
2019-02-28T03:38:25.770Z,3.47
2019-02-28T03:40:56.282Z,4.70
2019-02-28T03:43:26.481Z,4.23
2019-02-28T03:45:56.733Z,4.00
2019-02-28T03:48:26.957Z,3.80
2019-02-28T03:50:57.241Z,4.00
2019-02-28T03:53:27.428Z,4.30
2019-02-28T03:55:57.671Z,3.80
2019-02-28T03:58:28.272Z,4.63
2019-02-28T04:01:08.898Z,3.97
2019-02-28T04:03:34.936Z,5.17
2019-02-28T04:06:05.206Z,4.10
2019-02-28T04:08:35.352Z,4.50
2019-02-28T04:11:05.901Z,4.72
2019-02-28T04:13:36.385Z,3.77
2019-02-28T04:16:09.466Z,4.23
2019-02-28T04:18:43.912Z,4.60
2019-02-28T04:21:12.229Z,4.33
2019-02-28T04:23:42.571Z,4.57
2019-02-28T04:26:13.124Z,4.53
2019-02-28T04:28:43.374Z,3.80
2019-02-28T04:31:18.324Z,3.53
2019-02-28T04:33:51.765Z,4.30
2019-02-28T04:36:23.132Z,3.80
2019-02-28T04:38:53.335Z,3.60
2019-02-28T04:41:23.603Z,4.60
2019-02-28T04:43:53.689Z,4.00
2019-02-28T04:46:23.863Z,4.00
2019-02-28T04:48:54.053Z,4.43
2019-02-28T04:51:26.501Z,4.73
2019-02-28T04:53:56.767Z,4.20
2019-02-28T04:56:27.097Z,4.47
2019-02-28T04:58:59.514Z,4.00
2019-02-28T05:01:29.644Z,4.90
2019-02-28T05:04:02.335Z,3.90
2019-02-28T05:06:32.043Z,4.83
2019-02-28T05:09:02.202Z,4.73
2019-02-28T05:11:34.248Z,4.20
2019-02-28T05:14:04.639Z,5.00
2019-02-28T05:16:34.903Z,4.63
2019-02-28T05:19:05.128Z,4.47
2019-02-28T05:21:35.462Z,4.33
2019-02-28T05:24:07.716Z,4.47
2019-02-28T05:26:37.670Z,4.70
2019-02-28T05:29:11.906Z,4.50
2019-02-28T05:31:40.969Z,4.35
2019-02-28T05:34:13.258Z,4.40
2019-02-28T05:36:43.212Z,4.13
2019-02-28T05:39:13.327Z,4.63
2019-02-28T05:41:48.962Z,4.12
2019-02-28T05:44:15.726Z,4.20
2019-02-28T05:46:46.256Z,4.97
2019-02-28T05:49:16.425Z,4.30
2019-02-28T05:51:46.608Z,4.57
2019-02-28T05:54:17.209Z,4.17
2019-02-28T05:56:47.644Z,3.98
2019-02-28T05:59:17.947Z,4.70
2019-02-28T06:01:48.209Z,4.60
2019-02-28T06:04:18.329Z,4.23
2019-02-28T06:06:51.286Z,4.03
2019-02-28T06:09:20.712Z,4.77
2019-02-28T06:11:50.944Z,4.30
2019-02-28T06:14:26.615Z,5.20
2019-02-28T06:16:53.279Z,4.67
2019-02-28T06:19:23.493Z,4.30
2019-02-28T06:21:56.436Z,4.20
2019-02-28T06:24:25.622Z,3.87
2019-02-28T06:26:57.018Z,4.00
2019-02-28T06:29:27.453Z,4.50
2019-02-28T06:31:57.591Z,4.60
2019-02-28T06:34:28.801Z,5.50
2019-02-28T06:37:00.361Z,5.40
2019-02-28T06:39:31.049Z,5.37
2019-02-28T06:42:01.216Z,4.30
2019-02-28T06:44:31.500Z,4.00
2019-02-28T06:47:01.721Z,4.30
2019-02-28T06:49:32.008Z,4.10
2019-02-28T06:52:02.213Z,5.10
2019-02-28T06:54:32.424Z,3.97
2019-02-28T06:57:03.177Z,4.53
2019-02-28T06:59:36.129Z,5.10
2019-02-28T07:02:05.747Z,5.40
2019-02-28T07:04:35.922Z,4.90
2019-02-28T07:07:07.350Z,4.80
2019-02-28T07:09:38.198Z,5.63
2019-02-28T07:12:08.384Z,5.70
2019-02-28T07:14:38.522Z,5.97
2019-02-28T07:17:10.711Z,6.60
2019-02-28T07:19:40.938Z,6.43
2019-02-28T07:22:11.124Z,7.47
2019-02-28T07:24:41.329Z,6.70
2019-02-28T07:27:11.645Z,6.40
2019-02-28T07:29:42.745Z,6.67
2019-02-28T07:32:13.858Z,8.83
2019-02-28T07:34:44.260Z,6.70
2019-02-28T07:37:18.605Z,7.37
2019-02-28T07:39:46.577Z,7.90
2019-02-28T07:42:17.754Z,7.77
2019-02-28T07:44:48.053Z,7.17
2019-02-28T07:47:18.450Z,7.23
2019-02-28T07:49:50.203Z,6.77
2019-02-28T07:52:21.000Z,6.50
2019-02-28T07:54:53.376Z,8.20
2019-02-28T07:57:23.479Z,7.83
2019-02-28T07:59:53.682Z,15.55
2019-02-28T08:02:24.143Z,41.30
2019-02-28T08:04:55.729Z,64.37
2019-02-28T08:07:26.442Z,33.35
2019-02-28T08:09:58.100Z,17.57
2019-02-28T08:12:30.820Z,14.57
2019-02-28T08:15:00.713Z,14.10
2019-02-28T08:17:31.096Z,13.45
2019-02-28T08:20:01.256Z,10.03
2019-02-28T08:22:32.395Z,9.30
2019-02-28T08:25:02.724Z,11.30
2019-02-28T08:27:32.980Z,12.30
2019-02-28T08:30:03.305Z,12.80
2019-02-28T08:32:34.064Z,12.57
2019-02-28T08:35:05.328Z,13.37
2019-02-28T08:37:35.649Z,11.13
2019-02-28T08:40:08.890Z,12.47
2019-02-28T08:42:39.842Z,11.90
2019-02-28T08:45:11.929Z,11.70
2019-02-28T08:47:42.110Z,14.37
2019-02-28T08:50:19.076Z,13.30
2019-02-28T08:52:48.499Z,10.87
2019-02-28T08:55:27.892Z,12.30
2019-02-28T08:57:54.727Z,11.10
2019-02-28T09:00:22.969Z,11.60
2019-02-28T09:02:53.856Z,10.00
2019-02-28T09:05:26.205Z,10.00
2019-02-28T09:07:58.221Z,10.10
2019-02-28T09:10:28.570Z,10.67
2019-02-28T09:12:58.787Z,9.83
2019-02-28T09:15:31.079Z,9.53
2019-02-28T09:18:01.403Z,9.40
2019-02-28T09:20:31.648Z,10.60
2019-02-28T09:23:03.136Z,10.23
2019-02-28T09:25:33.781Z,10.30
2019-02-28T09:28:04.061Z,10.88
2019-02-28T09:30:37.367Z,9.78
2019-02-28T09:33:07.898Z,9.63
2019-02-28T09:35:38.569Z,10.03
2019-02-28T09:38:13.449Z,10.78
2019-02-28T09:40:41.487Z,9.85
2019-02-28T09:43:11.835Z,10.63
2019-02-28T09:45:43.449Z,12.07
2019-02-28T09:48:14.280Z,11.60
2019-02-28T09:50:44.630Z,10.65
2019-02-28T09:53:16.463Z,11.75
2019-02-28T09:55:47.443Z,10.65
2019-02-28T09:58:18.003Z,10.63
2019-02-28T10:00:50.414Z,11.00
2019-02-28T10:03:21.051Z,11.00
2019-02-28T10:05:51.445Z,11.38
2019-02-28T10:08:22.015Z,11.57
2019-02-28T10:10:55.888Z,11.38
2019-02-28T10:13:25.016Z,12.18
2019-02-28T10:15:55.470Z,11.55
2019-02-28T10:18:26.130Z,11.88
2019-02-28T10:20:59.094Z,11.03
2019-02-28T10:23:29.159Z,10.58
2019-02-28T10:25:59.887Z,10.63
2019-02-28T10:28:30.448Z,10.05
2019-02-28T10:31:01.335Z,9.23
2019-02-28T10:33:32.091Z,10.70
2019-02-28T10:36:02.704Z,8.95
2019-02-28T10:38:33.959Z,10.15
2019-02-28T10:41:04.713Z,11.22
2019-02-28T10:43:35.234Z,9.93
2019-02-28T10:46:05.825Z,11.30
2019-02-28T10:48:41.871Z,11.37
2019-02-28T10:51:13.906Z,11.15
2019-02-28T10:53:40.762Z,11.03
2019-02-28T10:56:10.997Z,11.63
2019-02-28T10:58:41.298Z,11.90
2019-02-28T11:01:12.754Z,11.85
2019-02-28T11:03:43.490Z,11.43
2019-02-28T11:06:14.095Z,9.95
2019-02-28T11:08:47.547Z,11.30
2019-02-28T11:11:17.356Z,10.80
2019-02-28T11:13:47.588Z,10.25
2019-02-28T11:16:20.527Z,11.50
2019-02-28T11:18:51.428Z,10.50
2019-02-28T11:21:21.991Z,11.57
2019-02-28T11:23:52.309Z,11.38
2019-02-28T11:26:22.552Z,11.45
2019-02-28T11:28:53.100Z,10.70
2019-02-28T11:31:25.821Z,10.05
2019-02-28T11:33:56.044Z,10.35
2019-02-28T11:36:26.726Z,10.70
2019-02-28T11:38:57.078Z,10.70
2019-02-28T11:41:27.439Z,10.00
2019-02-28T11:43:57.827Z,10.35
2019-02-28T11:46:28.553Z,8.38
2019-02-28T11:48:58.710Z,7.05
2019-02-28T11:51:30.338Z,7.92
2019-02-28T11:54:00.599Z,7.83
2019-02-28T11:56:30.796Z,9.58
2019-02-28T11:59:00.975Z,11.00
2019-02-28T12:01:31.255Z,9.93
2019-02-28T12:04:02.957Z,10.08
2019-02-28T12:06:34.477Z,10.20
2019-02-28T12:09:06.091Z,9.63
2019-02-28T12:11:37.213Z,9.45
2019-02-28T12:14:07.647Z,8.93
2019-02-28T12:16:37.924Z,5.85
2019-02-28T12:19:08.221Z,6.78
2019-02-28T12:21:38.893Z,5.60
2019-02-28T12:24:09.406Z,5.80
2019-02-28T12:26:39.733Z,5.67
2019-02-28T12:29:12.967Z,5.50
2019-02-28T12:31:42.116Z,5.40
2019-02-28T12:34:12.443Z,5.83
2019-02-28T12:36:43.116Z,4.60
2019-02-28T12:39:13.715Z,6.03
2019-02-28T12:41:44.531Z,4.97
2019-02-28T12:44:15.386Z,4.90
2019-02-28T12:46:46.665Z,5.40
2019-02-28T12:49:21.806Z,5.00
2019-02-28T12:51:49.356Z,4.92
2019-02-28T12:54:19.611Z,4.75
2019-02-28T12:56:50.118Z,5.55
2019-02-28T12:59:21.467Z,5.03
2019-02-28T13:01:51.985Z,5.20
2019-02-28T13:04:22.370Z,4.80
2019-02-28T13:06:55.506Z,4.87
2019-02-28T13:09:24.679Z,5.42
2019-02-28T13:11:54.967Z,4.17
2019-02-28T13:14:25.327Z,5.00
2019-02-28T13:16:57.604Z,5.25
2019-02-28T13:19:27.691Z,5.05
2019-02-28T13:21:58.066Z,5.85
2019-02-28T13:24:28.728Z,5.90
2019-02-28T13:26:58.971Z,5.83
2019-02-28T13:29:32.424Z,5.78
2019-02-28T13:32:01.719Z,5.10
2019-02-28T13:34:33.255Z,6.57
2019-02-28T13:37:03.834Z,6.13
2019-02-28T13:39:37.650Z,5.63
2019-02-28T13:42:08.327Z,6.12
2019-02-28T13:44:38.797Z,5.70
2019-02-28T13:47:10.712Z,5.72
2019-02-28T13:49:41.689Z,5.25
2019-02-28T13:52:19.020Z,5.28
2019-02-28T13:54:44.760Z,5.50
2019-02-28T13:57:15.291Z,5.87
2019-02-28T13:59:46.791Z,5.28
2019-02-28T14:02:17.467Z,5.27
2019-02-28T14:04:48.336Z,6.67
2019-02-28T14:07:18.866Z,6.20
2019-02-28T14:09:49.594Z,5.80
2019-02-28T14:12:21.668Z,6.23
2019-02-28T14:14:52.508Z,5.13
2019-02-28T14:17:23.228Z,6.00
2019-02-28T14:19:53.862Z,5.80
2019-02-28T14:22:24.769Z,6.07
2019-02-28T14:24:55.614Z,6.27
2019-02-28T14:27:26.315Z,6.73
2019-02-28T14:29:57.942Z,5.77
2019-02-28T14:32:29.458Z,6.30
2019-02-28T14:35:00.812Z,7.70
2019-02-28T14:37:32.844Z,7.45
2019-02-28T14:40:03.284Z,7.80
2019-02-28T14:42:34.058Z,8.30
2019-02-28T14:45:07.167Z,7.17
2019-02-28T14:47:37.553Z,6.77
2019-02-28T14:50:10.400Z,7.97
2019-02-28T14:52:41.832Z,7.93
2019-02-28T14:55:15.035Z,8.10
2019-02-28T14:57:48.884Z,9.13
2019-02-28T15:00:20.541Z,9.07
2019-02-28T15:02:51.306Z,9.30
2019-02-28T15:05:21.817Z,7.83
2019-02-28T15:07:52.505Z,8.20
2019-02-28T15:10:22.969Z,8.20
2019-02-28T15:12:55.371Z,8.37
2019-02-28T15:15:26.166Z,7.70
2019-02-28T15:17:56.699Z,8.40
2019-02-28T15:20:31.716Z,7.07
2019-02-28T15:22:59.800Z,8.00
2019-02-28T15:25:30.084Z,7.85
2019-02-28T15:28:00.383Z,8.70
2019-02-28T15:30:33.934Z,8.93
2019-02-28T15:33:04.060Z,8.27
2019-02-28T15:35:34.612Z,8.20
2019-02-28T15:38:05.656Z,7.97
2019-02-28T15:40:37.817Z,7.50
2019-02-28T15:43:08.376Z,7.83
2019-02-28T15:45:38.647Z,8.30
2019-02-28T15:48:08.951Z,8.60
2019-02-28T15:50:39.414Z,8.20
2019-02-28T15:53:14.120Z,8.10
2019-02-28T15:55:43.906Z,8.37
2019-02-28T15:58:16.531Z,7.67
2019-02-28T16:00:46.464Z,7.97
2019-02-28T16:03:17.485Z,7.57
2019-02-28T16:05:47.920Z,7.57
2019-02-28T16:08:18.148Z,7.57
2019-02-28T16:10:53.157Z,6.70
2019-02-28T16:13:22.627Z,6.97
2019-02-28T16:15:52.623Z,7.60
2019-02-28T16:18:22.981Z,9.37
2019-02-28T16:20:53.622Z,9.73
2019-02-28T16:23:27.595Z,10.90
2019-02-28T16:25:56.056Z,10.20
2019-02-28T16:28:26.466Z,10.77
2019-02-28T16:30:57.057Z,10.57
2019-02-28T16:33:27.402Z,10.40
2019-02-28T16:35:57.866Z,12.57
2019-02-28T16:38:30.018Z,11.97
2019-02-28T16:41:01.529Z,11.87
2019-02-28T16:43:33.969Z,12.27
2019-02-28T16:46:04.367Z,11.17
2019-02-28T16:48:36.500Z,12.63
2019-02-28T16:51:07.010Z,11.57
2019-02-28T16:53:37.837Z,13.40
2019-02-28T16:56:08.344Z,12.70
2019-02-28T16:58:38.651Z,12.37
2019-02-28T17:01:09.055Z,10.70
2019-02-28T17:03:41.704Z,13.87
2019-02-28T17:06:11.507Z,13.27
2019-02-28T17:08:51.495Z,12.87
2019-02-28T17:11:22.523Z,12.00
2019-02-28T17:14:02.195Z,12.63
2019-02-28T17:16:39.467Z,13.33
2019-02-28T17:19:10.027Z,13.17
2019-02-28T17:21:40.691Z,14.60
2019-02-28T17:24:12.327Z,12.77
2019-02-28T17:26:53.151Z,14.30
2019-02-28T17:29:32.743Z,13.37
2019-02-28T17:32:03.348Z,11.60
2019-02-28T17:34:33.836Z,12.00
2019-02-28T17:37:04.299Z,12.70
2019-02-28T17:39:34.602Z,10.50
2019-02-28T17:42:08.622Z,10.33
2019-02-28T17:44:46.302Z,9.63
2019-02-28T17:47:59.671Z,9.33
2019-02-28T17:50:44.614Z,9.23
2019-02-28T17:54:03.550Z,8.53
2019-02-28T17:57:21.145Z,8.40
2019-02-28T18:00:31.702Z,7.63
2019-02-28T18:03:45.070Z,8.07
2019-02-28T18:06:47.476Z,8.30
2019-02-28T18:09:54.193Z,7.20
2019-02-28T18:13:00.648Z,7.90
2019-02-28T18:16:09.252Z,7.70
2019-02-28T18:19:32.769Z,8.10
2019-02-28T18:22:44.713Z,50.17
2019-02-28T18:25:57.072Z,10.43
2019-02-28T18:29:20.919Z,9.07
2019-02-28T18:31:53.867Z,9.70
2019-02-28T18:34:28.867Z,9.90
2019-02-28T18:36:59.098Z,9.60
2019-02-28T18:39:29.320Z,8.70
2019-02-28T18:41:59.628Z,9.83
2019-02-28T18:44:29.851Z,8.70
2019-02-28T18:47:02.968Z,9.10
2019-02-28T18:49:32.214Z,8.57
2019-02-28T18:52:02.711Z,8.73
2019-02-28T18:54:33.418Z,9.33
2019-02-28T18:57:04.354Z,10.07
2019-02-28T18:59:34.627Z,9.73
2019-02-28T19:02:04.965Z,9.53
2019-02-28T19:04:35.464Z,9.10
2019-02-28T19:07:05.994Z,10.77
2019-02-28T19:09:36.511Z,8.00
2019-02-28T19:12:07.070Z,8.50
2019-02-28T19:14:37.322Z,8.77
2019-02-28T19:17:07.719Z,7.47
2019-02-28T19:19:38.572Z,6.87
2019-02-28T19:22:09.013Z,6.77
2019-02-28T19:24:42.471Z,7.67
2019-02-28T19:27:12.982Z,7.35
2019-02-28T19:29:43.667Z,6.17
2019-02-28T19:32:14.199Z,6.20
2019-02-28T19:34:45.862Z,6.47
2019-02-28T19:37:16.553Z,5.43
2019-02-28T19:39:47.027Z,5.80
2019-02-28T19:42:17.424Z,5.50
2019-02-28T19:44:48.244Z,5.83
2019-02-28T19:47:18.591Z,5.47
2019-02-28T19:49:48.884Z,6.00
2019-02-28T19:52:19.345Z,5.30
2019-02-28T19:54:49.822Z,4.50
2019-02-28T19:57:20.275Z,4.90
2019-02-28T19:59:50.536Z,5.00
2019-02-28T20:02:20.883Z,4.00
2019-02-28T20:04:51.326Z,3.80
2019-02-28T20:07:21.629Z,3.50
2019-02-28T20:09:52.078Z,3.40
2019-02-28T20:12:22.557Z,3.93
2019-02-28T20:14:53.167Z,3.10
2019-02-28T20:17:23.587Z,2.83
2019-02-28T20:19:55.151Z,2.67
2019-02-28T20:22:25.702Z,2.80
2019-02-28T20:24:59.489Z,3.00
2019-02-28T20:27:29.948Z,2.93
2019-02-28T20:30:00.456Z,2.50
2019-02-28T20:32:30.802Z,3.00
2019-02-28T20:35:01.548Z,3.20
2019-02-28T20:37:32.091Z,2.90
2019-02-28T20:40:02.670Z,2.77
2019-02-28T20:42:33.635Z,2.90
2019-02-28T20:45:04.155Z,2.63
2019-02-28T20:47:34.819Z,2.50
2019-02-28T20:50:08.712Z,2.47
2019-02-28T20:52:39.343Z,2.80
2019-02-28T20:55:10.457Z,3.10
2019-02-28T20:57:40.705Z,2.67
2019-02-28T21:00:14.352Z,2.17
2019-02-28T21:02:45.374Z,2.23
2019-02-28T21:05:15.876Z,2.20
2019-02-28T21:07:46.202Z,2.70
2019-02-28T21:10:17.277Z,2.70
2019-02-28T21:12:47.825Z,2.97
2019-02-28T21:15:18.952Z,2.70
2019-02-28T21:17:50.141Z,2.20
2019-02-28T21:20:20.599Z,2.20
2019-02-28T21:22:51.372Z,2.10
2019-02-28T21:25:23.067Z,2.40
2019-02-28T21:27:54.203Z,2.20
2019-02-28T21:30:24.859Z,2.97
2019-02-28T21:32:55.209Z,2.83
2019-02-28T21:35:25.958Z,3.40
2019-02-28T21:37:57.051Z,2.30
2019-02-28T21:40:27.799Z,3.50
2019-02-28T21:42:58.594Z,3.07
2019-02-28T21:45:29.183Z,2.93
2019-02-28T21:47:59.850Z,2.58
2019-02-28T21:50:30.572Z,2.50
2019-02-28T21:53:01.201Z,2.50
2019-02-28T21:55:31.494Z,2.40
2019-02-28T21:58:01.881Z,2.40
2019-02-28T22:00:32.395Z,3.03
2019-02-28T22:03:03.067Z,2.70
2019-02-28T22:05:33.475Z,2.50
2019-02-28T22:08:03.784Z,2.10
2019-02-28T22:10:34.132Z,2.47
2019-02-28T22:13:04.994Z,3.37
2019-02-28T22:15:35.437Z,2.72
2019-02-28T22:18:05.935Z,2.77
2019-02-28T22:20:36.860Z,3.20
2019-02-28T22:23:07.217Z,2.20
2019-02-28T22:25:37.872Z,2.30
2019-02-28T22:28:08.233Z,2.80
2019-02-28T22:31:00.417Z,3.60
2019-02-28T22:33:50.166Z,2.70
2019-02-28T22:36:24.683Z,2.60
2019-02-28T22:38:55.112Z,2.10
2019-02-28T22:41:25.717Z,2.27
2019-02-28T22:43:56.056Z,2.20
2019-02-28T22:46:26.479Z,1.83
2019-02-28T22:48:57.038Z,2.13
2019-02-28T22:51:27.527Z,2.53
2019-02-28T22:53:57.753Z,2.60
2019-02-28T22:56:28.011Z,2.30
2019-02-28T22:58:58.397Z,2.60
2019-02-28T23:01:28.884Z,2.30
2019-02-28T23:03:59.454Z,2.50
2019-02-28T23:06:29.717Z,2.70
2019-02-28T23:09:00.083Z,2.33
2019-02-28T23:11:30.381Z,2.27
2019-02-28T23:14:00.602Z,2.50
2019-02-28T23:16:31.332Z,2.73
2019-02-28T23:19:01.611Z,2.03
2019-02-28T23:21:31.961Z,2.10
2019-02-28T23:24:03.181Z,3.47
2019-02-28T23:26:54.069Z,2.50
2019-02-28T23:29:26.168Z,2.00
2019-02-28T23:32:23.765Z,2.47
2019-02-28T23:34:55.378Z,2.30
2019-02-28T23:37:25.561Z,2.57
2019-02-28T23:39:55.768Z,2.30
2019-02-28T23:42:26.033Z,2.60
2019-02-28T23:44:56.546Z,2.40
2019-02-28T23:47:26.759Z,2.70
2019-02-28T23:49:56.907Z,3.23
2019-02-28T23:52:27.153Z,2.50
2019-02-28T23:54:57.409Z,2.50
2019-02-28T23:57:28.094Z,2.67
2019-02-28T23:59:58.492Z,2.80
